Memmingen Airport

Airport
ICAO code: 
EDJA
Summary
ICAO Region: 
EUR
Territory: 
Location: 
Memmingen,
Coordinates: 
Aerial View: 
47° 59' 18.755" N, 10° 14' 21.019" E
Airport CFIT: 
Altimeter Temperature Error Correction
Metar
Observation
EDJA 170420Z AUTO 21015KT 9999 // BKN062/// 00/M02 Q1030
Station
MEMMINGERBERG
Date/Time
2022-01-17 04:20:00
Wind direction
210°
Wind speed
15 kts
Lowest cloud amount
broken clouds
Temperature
0°C
Dew point
-2°C
Humidity
86%
QNH
1030 hPa
Weather condition
n/a

Description

Regional airport serving Memmingen, Germany.

Climatology

Temperate Marine climate/Oceanic climate (Köppen climate classification Cfb) - Moderately cool summer and comparatively warm winter.

Runways

Designator Length Width Surface Rops
6/24 2981 30 ASP Yes/Yes
Airport map: 
Aerial View: 

Accidents and Serious Incidents at or in the vicinity of EDJA

SKYbrary Partners:

Safety knowledge contributed by: